createdAt,value
2018-09-29T00:03:56.936Z,9.57
2018-09-29T00:08:05.129Z,8.63
2018-09-29T00:12:13.279Z,7.80
2018-09-29T00:16:21.481Z,7.50
2018-09-29T00:20:29.596Z,8.60
2018-09-29T00:24:37.763Z,8.83
2018-09-29T00:28:46.025Z,8.60
2018-09-29T00:32:54.175Z,8.50
2018-09-29T00:37:02.328Z,8.17
2018-09-29T00:41:10.578Z,8.73
2018-09-29T00:45:18.722Z,8.20
2018-09-29T00:49:26.869Z,9.40
2018-09-29T00:53:35.060Z,9.50
2018-09-29T00:57:43.196Z,7.40
2018-09-29T01:01:51.335Z,7.43
2018-09-29T01:05:59.482Z,7.20
2018-09-29T01:10:07.639Z,7.40
2018-09-29T01:14:15.788Z,6.77
2018-09-29T01:18:23.935Z,5.90
2018-09-29T01:22:32.091Z,6.80
2018-09-29T01:26:40.228Z,7.23
2018-09-29T01:30:48.397Z,6.50
2018-09-29T01:34:56.538Z,6.63
2018-09-29T01:39:07.000Z,7.00
2018-09-29T01:43:15.169Z,6.60
2018-09-29T01:47:23.340Z,7.57
2018-09-29T01:51:31.636Z,7.03
2018-09-29T01:55:39.801Z,7.37
2018-09-29T01:59:47.957Z,7.90
2018-09-29T02:03:56.112Z,7.50
2018-09-29T02:08:04.098Z,7.40
2018-09-29T02:12:12.180Z,7.90
2018-09-29T02:16:20.327Z,7.50
2018-09-29T02:20:28.592Z,6.90
2018-09-29T02:24:36.726Z,7.47
2018-09-29T02:28:44.937Z,7.50
2018-09-29T02:32:53.031Z,7.77
2018-09-29T02:37:01.184Z,6.37
2018-09-29T02:41:09.375Z,6.13
2018-09-29T02:45:17.533Z,6.87
2018-09-29T02:49:25.689Z,6.37
2018-09-29T02:53:33.853Z,6.97
2018-09-29T02:57:41.993Z,5.83
2018-09-29T03:01:50.169Z,5.57
2018-09-29T03:05:58.309Z,5.70
2018-09-29T03:10:06.461Z,6.00
2018-09-29T03:14:14.404Z,6.22
2018-09-29T03:18:22.538Z,6.03
2018-09-29T03:22:30.748Z,5.87
2018-09-29T03:26:38.893Z,6.93
2018-09-29T03:30:47.034Z,7.30
2018-09-29T03:34:55.170Z,7.70
2018-09-29T03:39:03.779Z,7.10
2018-09-29T03:43:11.937Z,7.30
2018-09-29T03:47:20.091Z,8.23
2018-09-29T03:51:28.234Z,8.90
2018-09-29T03:55:36.380Z,9.03
2018-09-29T03:59:44.524Z,8.00
2018-09-29T04:03:52.700Z,8.67
2018-09-29T04:08:00.875Z,7.57
2018-09-29T04:12:09.013Z,7.50
2018-09-29T04:16:17.190Z,8.07
2018-09-29T04:20:25.334Z,8.27
2018-09-29T04:24:33.476Z,7.43
2018-09-29T04:28:41.640Z,8.30
2018-09-29T04:32:49.816Z,8.63
2018-09-29T04:36:57.988Z,7.60
2018-09-29T04:41:06.595Z,8.43
2018-09-29T04:45:14.732Z,6.60
2018-09-29T04:49:22.955Z,6.80
2018-09-29T04:53:31.052Z,7.17
2018-09-29T04:57:39.203Z,7.60
2018-09-29T05:01:47.360Z,8.60
2018-09-29T05:05:55.488Z,8.20
2018-09-29T05:10:03.656Z,6.43
2018-09-29T05:14:11.812Z,7.27
2018-09-29T05:18:19.953Z,6.30
2018-09-29T05:22:28.085Z,7.10
2018-09-29T05:26:36.580Z,7.60
2018-09-29T05:30:44.768Z,7.43
2018-09-29T05:34:52.880Z,7.63
2018-09-29T05:39:01.033Z,13.03
2018-09-29T05:43:09.180Z,7.77
2018-09-29T05:47:17.361Z,6.40
2018-09-29T05:51:25.499Z,6.83
2018-09-29T05:55:33.652Z,10.33
2018-09-29T05:59:41.813Z,8.33
2018-09-29T06:03:49.960Z,10.60
2018-09-29T06:07:58.106Z,8.80
2018-09-29T06:12:06.284Z,8.10
2018-09-29T06:16:14.479Z,10.67
2018-09-29T06:20:22.620Z,12.53
2018-09-29T06:24:30.788Z,17.60
2018-09-29T06:28:38.923Z,14.43
2018-09-29T06:32:47.082Z,9.70
2018-09-29T06:36:55.272Z,9.90
2018-09-29T06:41:03.373Z,8.00
2018-09-29T06:45:11.515Z,8.73
2018-09-29T06:49:19.660Z,8.50
2018-09-29T06:53:27.796Z,8.00
2018-09-29T06:57:35.949Z,10.87
2018-09-29T07:01:44.078Z,8.83
2018-09-29T07:05:52.231Z,13.90
2018-09-29T07:10:00.389Z,11.57
2018-09-29T07:14:08.573Z,12.13
2018-09-29T07:18:16.720Z,11.27
2018-09-29T07:22:24.865Z,10.10
2018-09-29T07:26:33.026Z,8.97
2018-09-29T07:30:41.166Z,8.77
2018-09-29T07:34:49.437Z,11.57
2018-09-29T07:38:57.578Z,7.50
2018-09-29T07:43:05.872Z,8.60
2018-09-29T07:47:14.056Z,8.70
2018-09-29T07:51:22.202Z,12.27
2018-09-29T07:55:30.369Z,10.20
2018-09-29T07:59:38.512Z,10.37
2018-09-29T08:03:46.664Z,10.40
2018-09-29T08:07:54.808Z,9.37
2018-09-29T08:12:03.000Z,8.93
2018-09-29T08:16:11.152Z,8.30
2018-09-29T08:20:19.304Z,7.93
2018-09-29T08:24:27.496Z,7.13
2018-09-29T08:28:35.577Z,8.00
2018-09-29T08:32:43.707Z,7.67
2018-09-29T08:36:51.881Z,7.67
2018-09-29T08:41:00.045Z,6.60
2018-09-29T08:45:08.184Z,5.70
2018-09-29T08:49:16.320Z,5.87
2018-09-29T08:53:24.591Z,5.50
2018-09-29T08:57:32.661Z,4.77
2018-09-29T09:01:40.808Z,3.90
2018-09-29T09:05:48.957Z,7.20
2018-09-29T09:09:57.111Z,4.07
2018-09-29T09:14:05.435Z,3.77
2018-09-29T09:18:13.585Z,3.47
2018-09-29T09:22:21.752Z,3.80
2018-09-29T09:26:29.972Z,3.77
2018-09-29T09:30:38.110Z,3.10
2018-09-29T09:34:46.276Z,3.43
2018-09-29T09:38:54.444Z,4.10
2018-09-29T09:43:02.623Z,2.83
2018-09-29T09:47:10.895Z,3.00
2018-09-29T09:51:19.372Z,2.77
2018-09-29T09:55:27.514Z,3.73
2018-09-29T09:59:35.664Z,2.80
2018-09-29T10:03:43.797Z,3.23
2018-09-29T10:07:51.930Z,2.60
2018-09-29T10:12:00.106Z,3.07
2018-09-29T10:16:08.248Z,2.90
2018-09-29T10:20:16.550Z,3.03
2018-09-29T10:24:24.696Z,3.23
2018-09-29T10:28:32.836Z,2.70
2018-09-29T10:32:40.992Z,3.13
2018-09-29T10:36:49.149Z,2.70
2018-09-29T10:40:57.288Z,2.77
2018-09-29T10:45:05.440Z,2.67
2018-09-29T10:49:13.581Z,2.70
2018-09-29T10:53:21.720Z,2.50
2018-09-29T10:57:29.888Z,2.77
2018-09-29T11:01:38.028Z,2.70
2018-09-29T11:05:46.200Z,2.50
2018-09-29T11:09:54.341Z,2.70
2018-09-29T11:14:02.484Z,2.90
2018-09-29T11:18:10.680Z,2.30
2018-09-29T11:22:18.827Z,2.40
2018-09-29T11:26:26.969Z,2.40
2018-09-29T11:30:35.117Z,2.20
2018-09-29T11:34:43.254Z,2.63
2018-09-29T11:38:51.384Z,2.10
2018-09-29T11:42:59.554Z,2.40
2018-09-29T11:47:07.697Z,2.20
2018-09-29T11:51:15.865Z,2.33
2018-09-29T11:55:24.082Z,2.40
2018-09-29T11:59:32.344Z,2.40
2018-09-29T12:03:40.663Z,2.30
2018-09-29T12:07:48.821Z,2.10
2018-09-29T12:11:57.014Z,2.43
2018-09-29T12:16:05.145Z,2.10
2018-09-29T12:20:13.296Z,2.43
2018-09-29T12:24:21.434Z,2.10
2018-09-29T12:28:29.628Z,2.47
2018-09-29T12:32:37.816Z,2.83
2018-09-29T12:36:45.978Z,2.20
2018-09-29T12:40:54.088Z,2.67
2018-09-29T12:45:02.213Z,2.53
2018-09-29T12:49:10.339Z,2.90
2018-09-29T12:53:18.267Z,3.00
2018-09-29T12:57:26.409Z,2.30
2018-09-29T13:01:34.575Z,1.90
2018-09-29T13:05:42.707Z,2.37
2018-09-29T13:09:50.861Z,2.50
2018-09-29T13:13:59.032Z,2.53
2018-09-29T13:18:07.157Z,2.03
2018-09-29T13:22:15.291Z,1.90
2018-09-29T13:26:23.541Z,2.10
2018-09-29T13:30:31.673Z,2.30
2018-09-29T13:34:39.848Z,2.20
2018-09-29T13:38:49.509Z,2.70
2018-09-29T13:42:57.723Z,2.30
2018-09-29T13:47:05.884Z,2.10
2018-09-29T13:51:14.032Z,2.60
2018-09-29T13:55:22.247Z,2.33
2018-09-29T13:59:30.492Z,2.67
2018-09-29T14:03:38.640Z,2.53
2018-09-29T14:07:46.787Z,2.40
2018-09-29T14:11:54.927Z,2.40
2018-09-29T14:16:03.168Z,2.50
2018-09-29T14:20:11.304Z,2.73
2018-09-29T14:24:19.448Z,2.60
2018-09-29T14:28:27.575Z,2.30
2018-09-29T14:32:35.712Z,2.30
2018-09-29T14:36:43.864Z,2.50
2018-09-29T14:40:52.006Z,2.50
2018-09-29T14:45:00.156Z,2.57
2018-09-29T14:49:08.271Z,2.67
2018-09-29T14:53:16.400Z,2.40
2018-09-29T14:57:24.568Z,2.73
2018-09-29T15:01:32.700Z,2.43
2018-09-29T15:05:40.844Z,2.73
2018-09-29T15:09:48.980Z,2.50
2018-09-29T15:13:57.133Z,2.70
2018-09-29T15:18:05.273Z,3.43
2018-09-29T15:22:13.456Z,3.00
2018-09-29T15:26:21.586Z,3.20
2018-09-29T15:30:29.750Z,2.60
2018-09-29T15:34:37.889Z,3.40
2018-09-29T15:38:46.024Z,2.77
2018-09-29T15:42:54.349Z,2.50
2018-09-29T15:47:02.288Z,2.47
2018-09-29T15:51:10.458Z,3.50
2018-09-29T15:55:18.744Z,3.20
2018-09-29T15:59:26.740Z,3.73
2018-09-29T16:03:34.919Z,2.93
2018-09-29T16:07:43.059Z,2.87
2018-09-29T16:11:51.193Z,2.90
2018-09-29T16:15:59.334Z,2.93
2018-09-29T16:20:07.512Z,4.40
2018-09-29T16:24:15.679Z,4.37
2018-09-29T16:28:23.865Z,2.97
2018-09-29T16:32:32.012Z,3.07
2018-09-29T16:36:40.217Z,3.23
2018-09-29T16:40:48.075Z,3.80
2018-09-29T16:44:56.212Z,3.27
2018-09-29T16:49:04.131Z,4.87
2018-09-29T16:53:12.266Z,6.00
2018-09-29T16:57:20.524Z,8.20
2018-09-29T17:01:28.604Z,7.27
2018-09-29T17:05:36.769Z,6.22
2018-09-29T17:09:44.905Z,5.03
2018-09-29T17:13:53.067Z,5.40
2018-09-29T17:18:01.225Z,7.73
2018-09-29T17:22:09.359Z,9.13
2018-09-29T17:26:17.509Z,10.27
2018-09-29T17:30:25.644Z,4.73
2018-09-29T17:34:33.800Z,6.60
2018-09-29T17:38:41.694Z,7.93
2018-09-29T17:42:49.843Z,7.00
2018-09-29T17:46:58.029Z,8.43
2018-09-29T17:51:06.184Z,5.03
2018-09-29T17:55:14.827Z,6.17
2018-09-29T17:59:22.980Z,5.50
2018-09-29T18:03:31.148Z,6.53
2018-09-29T18:07:39.305Z,9.53
2018-09-29T18:11:47.452Z,5.70
2018-09-29T18:15:55.575Z,5.90
2018-09-29T18:20:03.992Z,6.70
2018-09-29T18:24:12.134Z,6.43
2018-09-29T18:28:20.260Z,6.37
2018-09-29T18:32:28.423Z,8.20
2018-09-29T18:36:36.831Z,6.92
2018-09-29T18:40:44.995Z,6.47
2018-09-29T18:44:53.193Z,6.90
2018-09-29T18:49:01.312Z,7.30
2018-09-29T18:53:09.463Z,6.47
2018-09-29T18:57:17.642Z,7.80
2018-09-29T19:01:25.718Z,7.33
2018-09-29T19:05:33.847Z,6.80
2018-09-29T19:09:42.002Z,6.33
2018-09-29T19:13:50.143Z,6.50
2018-09-29T19:17:58.268Z,8.17
2018-09-29T19:22:06.400Z,7.87
2018-09-29T19:26:14.528Z,8.20
2018-09-29T19:30:22.660Z,8.20
2018-09-29T19:34:30.787Z,7.77
2018-09-29T19:38:38.908Z,7.30
2018-09-29T19:42:47.055Z,6.73
2018-09-29T19:46:55.196Z,9.40
2018-09-29T19:51:03.351Z,9.83
2018-09-29T19:55:11.484Z,16.27
2018-09-29T19:59:19.608Z,7.80
2018-09-29T20:03:27.813Z,31.70
2018-09-29T20:07:36.340Z,8.53
2018-09-29T20:11:44.484Z,11.03
2018-09-29T20:15:52.650Z,26.67
2018-09-29T20:20:00.883Z,8.63
2018-09-29T20:24:09.238Z,8.83
2018-09-29T20:28:17.439Z,7.10
2018-09-29T20:32:25.640Z,5.27
2018-09-29T20:36:33.800Z,6.03
2018-09-29T20:40:41.944Z,8.17
2018-09-29T20:44:50.158Z,6.07
2018-09-29T20:48:58.300Z,11.80
2018-09-29T20:53:06.465Z,13.00
2018-09-29T20:57:14.611Z,10.87
2018-09-29T21:01:22.797Z,5.47
2018-09-29T21:05:30.893Z,5.87
2018-09-29T21:09:39.111Z,5.43
2018-09-29T21:13:47.293Z,5.20
2018-09-29T21:17:55.377Z,5.87
2018-09-29T21:22:03.508Z,5.30
2018-09-29T21:26:11.636Z,5.27
2018-09-29T21:30:19.766Z,5.80
2018-09-29T21:34:28.040Z,5.73
2018-09-29T21:38:36.178Z,6.80
2018-09-29T21:42:44.304Z,6.00
2018-09-29T21:46:52.457Z,5.60
2018-09-29T21:51:00.627Z,6.07
2018-09-29T21:55:08.744Z,5.60
2018-09-29T21:59:16.953Z,5.80
2018-09-29T22:03:25.068Z,6.00
2018-09-29T22:07:34.496Z,5.60
2018-09-29T22:11:42.795Z,6.40
2018-09-29T22:15:50.916Z,6.47
2018-09-29T22:19:59.071Z,5.43
2018-09-29T22:24:07.284Z,5.23
2018-09-29T22:28:15.419Z,5.53
2018-09-29T22:32:23.551Z,6.07
2018-09-29T22:36:31.696Z,5.90
2018-09-29T22:40:39.812Z,6.10
2018-09-29T22:44:47.936Z,6.40
2018-09-29T22:48:56.068Z,6.00
2018-09-29T22:53:04.229Z,6.30
2018-09-29T22:57:12.387Z,6.10
2018-09-29T23:01:20.552Z,8.17
2018-09-29T23:05:28.702Z,7.47
2018-09-29T23:09:36.836Z,6.17
2018-09-29T23:13:44.972Z,5.40
2018-09-29T23:17:53.108Z,6.07
2018-09-29T23:22:01.236Z,6.60
2018-09-29T23:26:09.379Z,6.00
2018-09-29T23:30:17.508Z,7.20
2018-09-29T23:34:25.643Z,7.07
2018-09-29T23:38:33.772Z,6.50
2018-09-29T23:42:41.895Z,7.90
2018-09-29T23:46:50.024Z,6.10
2018-09-29T23:50:58.151Z,6.00
2018-09-29T23:55:06.297Z,5.83
2018-09-29T23:59:14.424Z,6.47
